Time;durP1;ratioP1;P1;durP2;ratioP2;P2;SDS_P1;SDS_P2;PMS_P1;PMS_P2;Temp;Humidity;BMP_temperature;BMP_pressure;BME280_temperature;BME280_humidity;BME280_pressure;Samples;Min_cycle;Max_cycle;Signal;HPM_P1;HPM_P2
2022/12/31 00:00:23;;;;;;;1.60;1.07;;;14.40;98.20;;;;;;5036545;28;20502;-77
2022/12/31 00:02:52;;;;;;;1.60;1.10;;;14.40;98.20;;;;;;5003052;28;20499;-76
2022/12/31 00:05:19;;;;;;;1.60;1.00;;;14.40;98.20;;;;;;5032539;28;20459;-76
2022/12/31 00:07:47;;;;;;;1.60;1.00;;;14.40;98.20;;;;;;4998849;28;21044;-75
2022/12/31 00:10:14;;;;;;;1.60;1.00;;;14.40;98.20;;;;;;5032402;28;20458;-76
2022/12/31 00:12:43;;;;;;;1.60;1.00;;;14.40;98.20;;;;;;5010014;28;20587;-74
2022/12/31 00:15:14;;;;;;;1.60;1.00;;;14.30;98.20;;;;;;5029052;28;20497;-76
2022/12/31 00:17:40;;;;;;;1.60;1.00;;;14.30;98.20;;;;;;5011380;28;20475;-77
2022/12/31 00:20:08;;;;;;;1.60;1.00;;;14.30;98.20;;;;;;5030823;28;20467;-76
2022/12/31 00:22:35;;;;;;;1.60;1.00;;;14.30;98.20;;;;;;5010762;28;20491;-76
2022/12/31 00:25:03;;;;;;;1.60;1.07;;;14.30;98.20;;;;;;5028220;28;21302;-76
2022/12/31 00:27:30;;;;;;;2.33;2.13;;;14.30;98.20;;;;;;5015775;28;20480;-77
2022/12/31 00:29:58;;;;;;;1.60;1.10;;;14.20;98.20;;;;;;5033351;28;20460;-77
2022/12/31 00:32:25;;;;;;;1.60;1.00;;;14.20;98.20;;;;;;5018829;28;20494;-76
2022/12/31 00:34:51;;;;;;;1.60;0.90;;;14.10;98.20;;;;;;5022885;28;20840;-76
2022/12/31 00:37:18;;;;;;;1.60;1.00;;;14.10;98.20;;;;;;5000855;28;21016;-77
2022/12/31 00:39:45;;;;;;;1.60;1.10;;;14.00;98.20;;;;;;5025096;28;20461;-76
2022/12/31 00:42:13;;;;;;;1.60;1.00;;;14.00;98.20;;;;;;5005279;28;20487;-76
2022/12/31 00:44:40;;;;;;;1.70;1.20;;;14.00;98.20;;;;;;5020659;28;20467;-78
2022/12/31 00:47:06;;;;;;;1.60;1.00;;;13.90;98.20;;;;;;5006289;28;20568;-76
2022/12/31 00:49:33;;;;;;;1.60;1.00;;;13.90;98.20;;;;;;5020808;28;20468;-77
2022/12/31 00:52:00;;;;;;;1.60;1.00;;;13.90;98.20;;;;;;5006636;28;20483;-77
2022/12/31 00:54:26;;;;;;;1.60;1.00;;;13.90;98.20;;;;;;5032057;28;20479;-76
2022/12/31 00:56:53;;;;;;;1.60;1.00;;;13.80;98.20;;;;;;5018779;28;20479;-76
2022/12/31 00:59:21;;;;;;;1.60;1.10;;;13.80;98.20;;;;;;5037330;28;20896;-77
2022/12/31 01:01:48;;;;;;;1.60;1.00;;;13.80;98.20;;;;;;5021137;28;20487;-76
2022/12/31 01:04:18;;;;;;;1.60;1.00;;;13.80;98.20;;;;;;5035600;28;20544;-77
2022/12/31 01:06:46;;;;;;;1.60;1.00;;;13.70;98.20;;;;;;5020131;28;20855;-77
2022/12/31 01:09:14;;;;;;;1.60;1.00;;;13.70;98.20;;;;;;5024199;28;20463;-77
2022/12/31 01:11:41;;;;;;;1.60;1.10;;;13.70;98.20;;;;;;5010352;28;20479;-77
2022/12/31 01:14:10;;;;;;;1.60;1.00;;;13.70;98.20;;;;;;5020199;28;20492;-76
2022/12/31 01:16:41;;;;;;;1.60;1.10;;;13.70;98.20;;;;;;5019053;28;20490;-77
2022/12/31 01:19:11;;;;;;;1.60;1.10;;;13.70;98.20;;;;;;5033759;28;20960;-76
2022/12/31 01:21:40;;;;;;;1.60;1.00;;;13.80;98.20;;;;;;5011640;28;20476;-75
2022/12/31 01:24:08;;;;;;;1.60;0.90;;;13.80;98.20;;;;;;5020345;28;20486;-75
2022/12/31 01:26:35;;;;;;;1.60;1.00;;;13.80;98.20;;;;;;5020944;28;20495;-74
2022/12/31 01:29:02;;;;;;;1.60;1.00;;;13.80;98.20;;;;;;5034306;28;20467;-77
2022/12/31 01:31:29;;;;;;;1.60;1.00;;;13.80;98.20;;;;;;5024304;28;20483;-76
2022/12/31 01:33:57;;;;;;;1.60;1.00;;;13.80;98.20;;;;;;5029676;28;21053;-76
2022/12/31 01:36:27;;;;;;;1.60;1.00;;;13.80;98.20;;;;;;5023239;28;20487;-76
2022/12/31 01:38:54;;;;;;;1.60;1.10;;;13.90;98.20;;;;;;5027984;28;20463;-76
2022/12/31 01:41:23;;;;;;;1.60;1.00;;;13.90;98.20;;;;;;5018364;28;20630;-77
2022/12/31 01:43:53;;;;;;;1.60;1.10;;;14.00;98.20;;;;;;5013433;28;20509;-75
2022/12/31 01:46:27;;;;;;;1.60;1.07;;;14.00;98.20;;;;;;5016902;28;20491;-77
2022/12/31 01:48:59;;;;;;;1.60;1.03;;;14.00;98.20;;;;;;5021973;28;20474;-76
2022/12/31 01:51:30;;;;;;;1.60;1.10;;;14.00;98.20;;;;;;5017001;28;20488;-76
2022/12/31 01:53:57;;;;;;;1.60;1.10;;;14.00;98.20;;;;;;5021476;28;20787;-77
2022/12/31 01:56:24;;;;;;;1.60;1.00;;;14.10;98.20;;;;;;5021936;28;20480;-78
2022/12/31 01:58:54;;;;;;;1.60;1.00;;;14.10;98.20;;;;;;5033403;28;20462;-76
2022/12/31 02:01:28;;;;;;;1.60;1.00;;;14.20;98.20;;;;;;5019997;28;20700;-76
2022/12/31 02:03:57;;;;;;;1.60;1.00;;;14.20;98.20;;;;;;5029315;28;20961;-77
2022/12/31 02:06:29;;;;;;;1.60;1.00;;;14.40;98.20;;;;;;5023038;28;20851;-76
2022/12/31 02:08:57;;;;;;;1.60;1.00;;;14.50;98.20;;;;;;5028549;28;20470;-77
2022/12/31 02:11:27;;;;;;;1.60;1.00;;;14.60;98.20;;;;;;5020239;28;20517;-76
2022/12/31 02:13:58;;;;;;;1.60;1.00;;;14.70;98.20;;;;;;5022782;28;20634;-78
2022/12/31 02:16:32;;;;;;;1.60;1.00;;;14.80;98.20;;;;;;5023460;28;20505;-77
2022/12/31 02:19:14;;;;;;;1.60;1.00;;;15.00;98.20;;;;;;5027562;28;20455;-77
2022/12/31 02:21:49;;;;;;;1.60;1.00;;;15.10;98.20;;;;;;5019626;28;20486;-76
2022/12/31 02:24:35;;;;;;;1.60;0.93;;;15.10;98.20;;;;;;5029467;28;20471;-76
2022/12/31 02:27:08;;;;;;;1.60;1.00;;;15.20;98.20;;;;;;5022792;28;20479;-75
2022/12/31 02:30:00;;;;;;;1.60;1.10;;;15.30;98.20;;;;;;5037903;28;20461;-75
2022/12/31 02:32:35;;;;;;;1.60;1.00;;;15.40;98.20;;;;;;5019781;28;20474;-77
2022/12/31 02:35:10;;;;;;;1.60;1.00;;;15.50;98.20;;;;;;5017026;28;20552;-75
2022/12/31 02:37:39;;;;;;;1.60;1.00;;;15.50;98.20;;;;;;5006577;28;20864;-77
2022/12/31 02:40:11;;;;;;;1.60;1.00;;;15.60;98.20;;;;;;5028383;28;20878;-77
2022/12/31 02:42:38;;;;;;;1.60;1.00;;;15.70;98.20;;;;;;5009693;28;20482;-74
2022/12/31 02:45:08;;;;;;;1.60;1.00;;;15.70;98.20;;;;;;5028330;28;20467;-74
2022/12/31 02:47:48;;;;;;;1.60;1.00;;;15.70;98.20;;;;;;5003845;28;20488;-74
2022/12/31 02:50:31;;;;;;;1.63;1.00;;;15.70;98.20;;;;;;5021148;28;20458;-75
2022/12/31 02:53:08;;;;;;;1.60;1.00;;;15.80;98.20;;;;;;5001219;28;20939;-75
2022/12/31 02:55:44;;;;;;;1.60;1.00;;;15.90;98.20;;;;;;5022307;28;20459;-75
2022/12/31 02:58:18;;;;;;;1.60;1.00;;;15.90;98.20;;;;;;5014784;28;20499;-75
2022/12/31 03:03:36;;;;;;;1.60;1.00;;;15.90;98.20;;;;;;4994134;28;20849;-75
2022/12/31 03:06:04;;;;;;;1.60;1.00;;;16.00;98.20;;;;;;5013365;28;20725;-75
2022/12/31 03:08:31;;;;;;;1.60;1.00;;;16.10;98.20;;;;;;5029218;28;20463;-75
2022/12/31 03:10:57;;;;;;;1.60;1.00;;;16.10;98.20;;;;;;5015061;28;20463;-75
2022/12/31 03:13:23;;;;;;;1.67;1.07;;;16.10;98.20;;;;;;5008743;28;20482;-72
2022/12/31 03:15:51;;;;;;;1.60;1.00;;;16.10;98.20;;;;;;5022511;28;20475;-75
2022/12/31 03:22:26;;;;;;;1.60;1.00;;;16.10;98.20;;;;;;5026688;28;20462;-75
2022/12/31 03:26:40;;;;;;;1.63;1.00;;;16.10;98.20;;;;;;5018588;28;20474;-77
2022/12/31 03:29:06;;;;;;;1.60;1.00;;;16.20;98.20;;;;;;5025629;28;20467;-77
2022/12/31 03:31:34;;;;;;;1.60;1.00;;;16.20;98.20;;;;;;5013561;28;20478;-77
2022/12/31 03:34:01;;;;;;;1.60;1.00;;;16.20;98.20;;;;;;5024159;28;20843;-76
2022/12/31 03:36:28;;;;;;;1.60;1.00;;;16.20;98.20;;;;;;5011314;28;20561;-74
2022/12/31 03:38:55;;;;;;;1.60;1.00;;;16.20;98.20;;;;;;5025257;28;20956;-77
2022/12/31 03:41:21;;;;;;;1.60;1.00;;;16.20;98.20;;;;;;5010573;28;20488;-77
2022/12/31 03:43:48;;;;;;;1.60;0.90;;;16.20;98.20;;;;;;5007326;28;20491;-76
2022/12/31 03:46:15;;;;;;;1.63;1.00;;;16.20;98.20;;;;;;5013767;28;20543;-77
2022/12/31 03:48:43;;;;;;;1.60;1.00;;;16.20;98.20;;;;;;5019378;28;20664;-75
2022/12/31 03:51:09;;;;;;;1.60;1.00;;;16.20;98.20;;;;;;5007454;28;20479;-75
2022/12/31 03:53:36;;;;;;;1.60;1.00;;;16.20;98.20;;;;;;5009902;28;20491;-76
2022/12/31 03:56:03;;;;;;;1.60;1.00;;;16.20;98.20;;;;;;5016298;28;21062;-75
2022/12/31 03:58:30;;;;;;;1.60;1.00;;;16.20;98.20;;;;;;5021441;28;20460;-75
2022/12/31 04:00:57;;;;;;;1.63;1.00;;;16.20;98.20;;;;;;5014097;28;20475;-77
2022/12/31 04:03:23;;;;;;;1.60;1.00;;;16.20;98.20;;;;;;5023003;28;20484;-75
2022/12/31 04:05:55;;;;;;;1.60;1.00;;;16.20;98.20;;;;;;5009901;28;20861;-75
2022/12/31 04:08:23;;;;;;;1.60;1.00;;;16.20;98.20;;;;;;5020576;28;20468;-76
2022/12/31 04:10:49;;;;;;;1.60;1.00;;;16.20;98.20;;;;;;5011621;28;20850;-76
2022/12/31 04:13:16;;;;;;;1.60;1.00;;;16.20;98.20;;;;;;4998320;28;20787;-76
2022/12/31 04:15:43;;;;;;;1.60;1.00;;;16.20;98.20;;;;;;5021920;28;20468;-76
2022/12/31 04:18:10;;;;;;;1.60;0.90;;;16.20;98.20;;;;;;5013477;28;20487;-76
2022/12/31 04:20:36;;;;;;;1.60;1.10;;;16.20;98.20;;;;;;5022939;28;20496;-75
2022/12/31 04:23:04;;;;;;;1.60;1.00;;;16.20;98.20;;;;;;4998351;28;20487;-75
2022/12/31 04:25:31;;;;;;;1.63;1.00;;;16.20;98.20;;;;;;5020206;28;20463;-76
2022/12/31 04:27:58;;;;;;;1.60;1.00;;;16.30;98.20;;;;;;5010041;28;20993;-75
2022/12/31 04:30:25;;;;;;;1.63;1.00;;;16.30;98.20;;;;;;5021111;28;20779;-76
2022/12/31 04:32:51;;;;;;;1.60;1.00;;;16.30;98.20;;;;;;5010803;28;21012;-77
2022/12/31 04:35:18;;;;;;;1.60;1.00;;;16.30;98.20;;;;;;5019142;28;20470;-77
2022/12/31 04:37:45;;;;;;;1.60;1.00;;;16.30;98.20;;;;;;5009635;28;20484;-75
2022/12/31 04:40:13;;;;;;;1.60;1.00;;;16.30;98.20;;;;;;5022860;28;20468;-76
2022/12/31 04:42:40;;;;;;;1.60;0.90;;;16.30;98.20;;;;;;5001597;28;20484;-73
2022/12/31 04:45:07;;;;;;;1.60;1.00;;;16.40;98.20;;;;;;5024059;28;20466;-78
2022/12/31 04:47:34;;;;;;;1.60;1.00;;;16.40;98.20;;;;;;5014971;28;21069;-76
2022/12/31 04:50:01;;;;;;;1.60;1.00;;;16.40;98.20;;;;;;5029099;28;20466;-76
2022/12/31 04:52:28;;;;;;;1.60;0.90;;;16.40;98.20;;;;;;5003388;28;20525;-77
2022/12/31 04:54:54;;;;;;;1.60;1.10;;;16.40;98.20;;;;;;5023619;28;20848;-75
2022/12/31 04:57:22;;;;;;;1.60;0.97;;;16.50;98.20;;;;;;5009074;28;20486;-77
2022/12/31 04:59:49;;;;;;;1.63;1.00;;;16.50;98.20;;;;;;5029453;28;20462;-76
2022/12/31 05:02:16;;;;;;;1.60;1.00;;;16.40;98.20;;;;;;5006136;28;20488;-75
2022/12/31 05:04:43;;;;;;;1.60;1.00;;;16.50;98.20;;;;;;5029664;28;20465;-77
2022/12/31 05:07:09;;;;;;;1.60;1.00;;;16.50;98.20;;;;;;5014446;28;20501;-76
2022/12/31 05:09:36;;;;;;;1.60;1.00;;;16.50;98.20;;;;;;5028715;28;20857;-77
2022/12/31 05:12:03;;;;;;;1.60;1.00;;;16.50;98.20;;;;;;5005280;28;20485;-75
2022/12/31 05:14:31;;;;;;;1.60;1.00;;;16.50;98.20;;;;;;5022327;28;20466;-76
2022/12/31 05:16:59;;;;;;;1.60;1.00;;;16.50;98.20;;;;;;5009963;28;20472;-77
2022/12/31 05:19:26;;;;;;;1.60;1.00;;;16.50;98.20;;;;;;5022154;28;20495;-76
2022/12/31 05:24:33;;;;;;;1.60;0.97;;;16.60;98.20;;;;;;5024404;28;20460;-76
2022/12/31 05:27:00;;;;;;;1.60;1.00;;;16.60;98.20;;;;;;5016250;28;20479;-77
2022/12/31 05:29:27;;;;;;;1.63;1.00;;;16.60;98.20;;;;;;5032534;28;20966;-75
2022/12/31 05:31:55;;;;;;;1.60;1.00;;;16.60;98.20;;;;;;5009219;28;20492;-74
2022/12/31 05:34:22;;;;;;;1.60;1.00;;;16.60;98.20;;;;;;5023642;28;20855;-76
2022/12/31 05:36:49;;;;;;;1.60;1.00;;;16.60;98.20;;;;;;5017051;28;20650;-73
2022/12/31 05:39:16;;;;;;;1.60;1.00;;;16.60;98.20;;;;;;5027877;28;20471;-76
2022/12/31 05:41:42;;;;;;;1.60;1.00;;;16.60;98.20;;;;;;5009181;28;20495;-75
2022/12/31 05:44:10;;;;;;;1.60;1.07;;;16.60;98.20;;;;;;5033430;22;20479;-74
2022/12/31 05:46:37;;;;;;;1.70;1.10;;;16.60;98.20;;;;;;5043547;28;20466;-74
2022/12/31 05:49:05;;;;;;;1.60;1.00;;;16.60;98.20;;;;;;5051793;28;20469;-74
2022/12/31 05:51:32;;;;;;;1.60;0.97;;;16.60;98.20;;;;;;5052302;28;20683;-73
2022/12/31 05:53:59;;;;;;;1.60;1.00;;;16.60;98.20;;;;;;5044317;28;20830;-73
2022/12/31 05:56:25;;;;;;;1.60;1.00;;;16.60;98.20;;;;;;5032935;28;21163;-74
2022/12/31 05:58:52;;;;;;;1.60;0.90;;;16.60;98.20;;;;;;5053099;28;20457;-73
2022/12/31 06:01:19;;;;;;;1.60;0.90;;;16.60;98.20;;;;;;5031070;28;20505;-73
2022/12/31 06:03:46;;;;;;;1.60;0.93;;;16.60;98.20;;;;;;5050385;28;20450;-74
2022/12/31 06:06:14;;;;;;;1.60;0.90;;;16.60;98.20;;;;;;5033687;28;21318;-73
2022/12/31 06:08:40;;;;;;;1.60;1.10;;;16.60;98.20;;;;;;5054734;28;20457;-74
2022/12/31 06:11:07;;;;;;;1.60;1.00;;;16.60;98.20;;;;;;5032808;28;20850;-73
2022/12/31 06:13:34;;;;;;;1.60;1.00;;;16.60;98.20;;;;;;5032867;28;21015;-73
2022/12/31 06:16:06;;;;;;;1.60;1.00;;;16.60;98.20;;;;;;5028646;28;20494;-74
2022/12/31 06:18:33;;;;;;;1.60;1.00;;;16.60;98.20;;;;;;5052672;28;20475;-73
2022/12/31 06:20:59;;;;;;;1.60;1.00;;;16.60;98.20;;;;;;5023446;28;20831;-73
2022/12/31 06:23:28;;;;;;;1.63;1.00;;;16.70;98.20;;;;;;5031891;28;20459;-73
2022/12/31 06:25:55;;;;;;;1.60;1.00;;;16.60;98.20;;;;;;5034242;28;20483;-73
2022/12/31 06:28:22;;;;;;;1.60;1.00;;;16.70;98.20;;;;;;5053018;28;20837;-73
2022/12/31 06:30:50;;;;;;;1.60;1.00;;;16.70;98.20;;;;;;5034197;28;20466;-72
2022/12/31 06:33:16;;;;;;;1.60;1.00;;;16.70;98.20;;;;;;5056065;28;20550;-72
2022/12/31 06:35:43;;;;;;;1.60;0.90;;;16.80;98.20;;;;;;5043075;28;20863;-72
2022/12/31 06:38:10;;;;;;;1.60;1.00;;;16.80;98.20;;;;;;5045023;28;20501;-75
2022/12/31 06:40:38;;;;;;;1.60;0.90;;;16.80;98.20;;;;;;5035932;28;20487;-73
2022/12/31 06:43:05;;;;;;;1.60;1.00;;;16.80;98.20;;;;;;5012537;28;20486;-73
2022/12/31 06:45:32;;;;;;;1.60;0.97;;;16.80;98.20;;;;;;5032190;28;20522;-73
2022/12/31 06:47:58;;;;;;;1.60;0.90;;;16.90;98.20;;;;;;5038841;28;20952;-73
2022/12/31 06:50:25;;;;;;;1.60;0.90;;;16.90;98.20;;;;;;5046003;28;20459;-73
2022/12/31 06:52:52;;;;;;;1.60;1.00;;;16.90;98.20;;;;;;5008281;28;20491;-73
2022/12/31 06:55:19;;;;;;;1.60;1.00;;;16.90;98.20;;;;;;5038443;28;20513;-72
2022/12/31 06:57:48;;;;;;;1.60;1.00;;;16.90;98.20;;;;;;5029654;28;20525;-73
2022/12/31 07:00:16;;;;;;;1.60;1.00;;;16.90;98.20;;;;;;5029273;28;20470;-73
2022/12/31 07:03:07;;;;;;;1.60;1.00;;;16.90;98.20;;;;;;5039309;28;20858;-73
2022/12/31 07:05:41;;;;;;;1.60;0.90;;;16.90;98.20;;;;;;5038278;28;20483;-73
2022/12/31 07:08:35;;;;;;;1.60;1.00;;;16.90;98.20;;;;;;5039396;28;20470;-73
2022/12/31 07:11:07;;;;;;;1.60;1.00;;;16.90;98.20;;;;;;5024336;28;20529;-73
2022/12/31 07:14:16;;;;;;;1.60;0.90;;;16.90;98.20;;;;;;5026246;28;20486;-74
2022/12/31 07:16:56;;;;;;;1.60;1.07;;;17.00;98.20;;;;;;5036366;28;20492;-73
2022/12/31 07:19:35;;;;;;;1.60;0.90;;;17.00;98.20;;;;;;5042321;28;20463;-74
2022/12/31 07:22:05;;;;;;;1.60;0.90;;;17.00;98.20;;;;;;5033871;28;20517;-74
2022/12/31 07:24:32;;;;;;;1.60;1.00;;;17.00;98.20;;;;;;5034538;28;20829;-74
2022/12/31 07:27:16;;;;;;;1.60;1.00;;;17.00;98.20;;;;;;5028785;28;20660;-74
2022/12/31 07:29:59;;;;;;;1.60;1.00;;;16.90;98.20;;;;;;5036743;28;20463;-74
2022/12/31 07:32:39;;;;;;;1.70;1.10;;;17.00;98.20;;;;;;5039330;28;20473;-74
2022/12/31 07:35:15;;;;;;;1.60;0.93;;;17.00;98.20;;;;;;5041750;28;20482;-74
2022/12/31 07:37:49;;;;;;;1.60;1.00;;;17.10;98.20;;;;;;5042988;28;20978;-74
2022/12/31 07:40:21;;;;;;;1.60;1.00;;;17.10;98.20;;;;;;5035685;28;20466;-74
2022/12/31 07:43:01;;;;;;;1.63;1.00;;;17.10;98.20;;;;;;5035241;28;20477;-72
2022/12/31 07:45:37;;;;;;;1.60;1.00;;;17.10;98.20;;;;;;5039763;28;20486;-72
2022/12/31 07:48:13;;;;;;;1.60;1.00;;;17.10;98.20;;;;;;5010704;28;20608;-74
2022/12/31 07:50:41;;;;;;;1.60;0.97;;;17.10;98.20;;;;;;5038306;28;20470;-74
2022/12/31 07:53:09;;;;;;;1.60;1.00;;;17.20;98.20;;;;;;5040293;28;20474;-73
2022/12/31 07:55:35;;;;;;;1.60;1.00;;;17.20;98.20;;;;;;5033761;28;20479;-74
2022/12/31 07:58:10;;;;;;;1.60;1.00;;;17.20;98.20;;;;;;5033149;28;20490;-74
2022/12/31 08:00:39;;;;;;;1.60;1.00;;;17.20;98.20;;;;;;5038506;28;20473;-73
2022/12/31 08:03:18;;;;;;;1.60;1.00;;;17.20;98.20;;;;;;5042854;28;20504;-74
2022/12/31 08:05:53;;;;;;;1.60;1.00;;;17.20;98.20;;;;;;5043513;28;20474;-75
2022/12/31 08:08:35;;;;;;;1.60;1.00;;;17.20;98.20;;;;;;5005833;28;20566;-73
2022/12/31 08:11:12;;;;;;;1.60;1.00;;;17.20;98.20;;;;;;5031736;28;20470;-73
2022/12/31 08:13:42;;;;;;;1.60;0.90;;;17.20;98.20;;;;;;5049313;28;20454;-72
2022/12/31 08:16:13;;;;;;;1.60;0.90;;;17.20;98.20;;;;;;5030282;28;20858;-72
2022/12/31 08:18:40;;;;;;;1.60;1.00;;;17.20;98.20;;;;;;5051950;28;21174;-73
2022/12/31 08:21:20;;;;;;;1.60;1.00;;;17.20;98.20;;;;;;5030696;28;20463;-73
2022/12/31 08:23:55;;;;;;;1.60;1.00;;;17.20;98.20;;;;;;5045078;28;20484;-73
2022/12/31 08:26:34;;;;;;;1.60;0.93;;;17.20;98.20;;;;;;5027331;28;20477;-72
2022/12/31 08:29:14;;;;;;;1.60;0.93;;;17.20;98.20;;;;;;5035756;28;20984;-72
2022/12/31 08:31:52;;;;;;;1.60;1.00;;;17.20;98.20;;;;;;5022751;28;20484;-72
2022/12/31 08:34:27;;;;;;;1.60;1.00;;;17.20;98.20;;;;;;5029506;28;20486;-72
2022/12/31 08:37:01;;;;;;;1.60;1.00;;;17.20;98.20;;;;;;5033944;28;20836;-72
2022/12/31 08:39:41;;;;;;;1.60;0.90;;;17.30;98.20;;;;;;5044032;28;20549;-72
2022/12/31 08:42:18;;;;;;;1.60;1.00;;;17.30;98.20;;;;;;5015327;28;20861;-72
2022/12/31 08:44:55;;;;;;;1.60;1.00;;;17.30;98.20;;;;;;5028444;28;21026;-72
2022/12/31 08:47:31;;;;;;;1.60;0.97;;;17.30;98.20;;;;;;5028913;28;21004;-72
2022/12/31 08:49:58;;;;;;;1.60;1.00;;;17.30;98.20;;;;;;5040743;28;20454;-72
2022/12/31 08:52:26;;;;;;;1.60;0.97;;;17.30;98.20;;;;;;5010720;28;21049;-72
2022/12/31 08:54:54;;;;;;;1.60;0.90;;;17.40;98.20;;;;;;5033757;28;20482;-72
2022/12/31 08:57:29;;;;;;;1.60;1.00;;;17.40;98.20;;;;;;5028222;28;20475;-72
2022/12/31 09:00:04;;;;;;;1.60;1.00;;;17.40;98.20;;;;;;5038618;28;20480;-72
2022/12/31 09:02:53;;;;;;;1.60;0.90;;;17.40;98.20;;;;;;5027011;28;20487;-72
2022/12/31 09:05:25;;;;;;;1.60;1.00;;;17.40;98.20;;;;;;5035532;28;20493;-72
2022/12/31 09:08:04;;;;;;;1.60;1.00;;;17.40;98.20;;;;;;5036633;28;20484;-71
2022/12/31 09:10:33;;;;;;;1.60;0.90;;;17.50;98.20;;;;;;5038050;28;20472;-72
2022/12/31 09:13:11;;;;;;;1.60;1.00;;;17.50;98.20;;;;;;5014119;28;20483;-72
2022/12/31 09:15:43;;;;;;;1.60;1.00;;;17.50;98.20;;;;;;5038386;28;20510;-72
2022/12/31 09:18:13;;;;;;;1.60;0.97;;;17.50;98.20;;;;;;5032172;28;20475;-72
2022/12/31 09:20:40;;;;;;;1.60;1.00;;;17.50;98.20;;;;;;5035360;28;20763;-72
2022/12/31 09:23:07;;;;;;;1.60;0.90;;;17.60;98.20;;;;;;5026823;28;20636;-73
2022/12/31 09:25:39;;;;;;;1.60;1.00;;;17.50;98.20;;;;;;5041336;28;20486;-72
2022/12/31 09:28:15;;;;;;;1.60;0.93;;;17.60;98.20;;;;;;5014088;28;20470;-72
2022/12/31 09:30:50;;;;;;;1.67;1.10;;;17.60;98.20;;;;;;5039767;28;20490;-72
2022/12/31 09:33:34;;;;;;;1.60;1.00;;;17.60;98.20;;;;;;5012268;28;20473;-72
2022/12/31 09:36:05;;;;;;;1.60;1.00;;;17.60;98.20;;;;;;5025053;28;20473;-72
2022/12/31 09:38:40;;;;;;;1.60;0.90;;;17.60;98.20;;;;;;5038654;28;20489;-72
2022/12/31 09:41:16;;;;;;;1.60;0.97;;;17.70;98.20;;;;;;5021504;28;20540;-72
2022/12/31 09:44:26;;;;;;;1.60;1.00;;;17.70;98.20;;;;;;5022041;28;20463;-72
2022/12/31 09:47:36;;;;;;;1.60;1.00;;;17.80;98.20;;;;;;5017322;28;20479;-72
2022/12/31 09:50:36;;;;;;;1.60;1.00;;;17.80;98.20;;;;;;5027216;28;20495;-72
2022/12/31 09:53:40;;;;;;;1.60;0.97;;;17.80;98.20;;;;;;4999898;28;20479;-72
2022/12/31 09:56:14;;;;;;;1.60;1.00;;;17.90;98.20;;;;;;5008047;28;20479;-72
2022/12/31 09:58:48;;;;;;;1.60;0.90;;;17.80;98.20;;;;;;5007628;28;21150;-72
2022/12/31 10:01:34;;;;;;;1.60;1.00;;;17.80;98.20;;;;;;5016359;28;20510;-72
2022/12/31 10:04:28;;;;;;;1.60;1.00;;;17.80;98.20;;;;;;5027036;28;20459;-72
2022/12/31 10:07:07;;;;;;;1.60;0.90;;;17.80;98.20;;;;;;5007673;28;20478;-72
2022/12/31 10:09:50;;;;;;;1.60;1.00;;;17.80;98.20;;;;;;5026401;28;20462;-72
2022/12/31 10:12:55;;;;;;;1.60;0.90;;;17.80;98.20;;;;;;5000696;28;20485;-72
2022/12/31 10:15:57;;;;;;;1.60;0.93;;;17.80;98.20;;;;;;5027986;28;20483;-72
2022/12/31 10:18:39;;;;;;;1.60;1.00;;;17.90;98.20;;;;;;4987062;28;20493;-72
2022/12/31 10:21:31;;;;;;;1.60;0.90;;;17.90;98.20;;;;;;5009016;28;20459;-72
2022/12/31 10:24:37;;;;;;;1.60;0.90;;;17.90;98.20;;;;;;5026763;28;20474;-72
2022/12/31 10:27:21;;;;;;;1.60;0.93;;;18.00;98.20;;;;;;4985734;28;20900;-71
2022/12/31 10:29:58;;;;;;;1.60;0.90;;;18.00;98.20;;;;;;5023174;28;20948;-71
2022/12/31 10:32:38;;;;;;;1.60;1.00;;;18.00;98.20;;;;;;5015193;28;20935;-72
2022/12/31 10:35:23;;;;;;;1.60;0.90;;;18.00;98.20;;;;;;5019700;28;20510;-72
2022/12/31 10:38:17;;;;;;;1.60;0.90;;;18.10;98.20;;;;;;5027570;28;20479;-72
2022/12/31 10:41:23;;;;;;;1.60;1.00;;;18.10;98.20;;;;;;5025286;28;20466;-72
2022/12/31 10:44:30;;;;;;;1.60;0.93;;;18.10;98.20;;;;;;5006558;28;20482;-72
2022/12/31 10:47:21;;;;;;;1.60;0.97;;;18.10;98.20;;;;;;5025597;28;20478;-72
2022/12/31 10:50:25;;;;;;;1.60;1.00;;;18.10;98.20;;;;;;5031328;28;20455;-72
2022/12/31 10:53:24;;;;;;;1.60;0.90;;;18.10;98.20;;;;;;5009791;28;20855;-72
2022/12/31 10:56:21;;;;;;;1.60;1.00;;;18.10;98.20;;;;;;5018788;28;20483;-72
2022/12/31 10:59:19;;;;;;;1.60;1.00;;;18.10;98.20;;;;;;5024696;28;20881;-72
2022/12/31 11:02:00;;;;;;;1.60;0.90;;;18.20;98.20;;;;;;5004756;28;20468;-72
2022/12/31 11:04:56;;;;;;;1.60;1.00;;;18.20;98.20;;;;;;5018755;28;20479;-72
2022/12/31 11:07:53;;;;;;;1.60;0.93;;;18.20;98.20;;;;;;5026749;28;20496;-71
2022/12/31 11:10:59;;;;;;;1.60;0.90;;;18.20;98.20;;;;;;5026610;28;20578;-72
2022/12/31 11:14:04;;;;;;;1.60;1.00;;;18.20;98.20;;;;;;5003619;28;21005;-72
2022/12/31 11:16:46;;;;;;;1.60;1.00;;;18.20;98.20;;;;;;5017601;28;20497;-72
2022/12/31 11:19:21;;;;;;;1.60;0.90;;;18.30;98.20;;;;;;5027113;28;20486;-71
2022/12/31 11:22:11;;;;;;;1.60;0.90;;;18.30;98.20;;;;;;5014229;28;20505;-72
2022/12/31 11:25:00;;;;;;;1.60;0.90;;;18.30;98.20;;;;;;5021237;28;20487;-72
2022/12/31 11:27:42;;;;;;;1.60;1.00;;;18.30;98.20;;;;;;5028746;28;20759;-72
2022/12/31 11:30:21;;;;;;;1.60;1.00;;;18.30;98.20;;;;;;5025851;28;20456;-72
2022/12/31 11:33:00;;;;;;;1.60;0.93;;;18.30;98.20;;;;;;4994089;28;20492;-72
2022/12/31 11:35:41;;;;;;;1.60;1.00;;;18.30;98.20;;;;;;5027371;28;20886;-72
2022/12/31 11:38:18;;;;;;;1.60;0.97;;;18.30;98.20;;;;;;5016373;28;20479;-72
2022/12/31 11:40:54;;;;;;;1.60;1.00;;;18.20;98.20;;;;;;5025975;28;20459;-72
2022/12/31 11:43:27;;;;;;;1.60;0.90;;;18.20;98.20;;;;;;5006707;28;20486;-72
2022/12/31 11:46:26;;;;;;;1.60;0.90;;;18.20;98.20;;;;;;5030889;28;20593;-72
2022/12/31 11:49:24;;;;;;;1.60;1.00;;;18.10;98.20;;;;;;5044788;28;21026;-72
2022/12/31 11:52:26;;;;;;;1.60;0.90;;;18.10;98.20;;;;;;4982488;28;20508;-72
2022/12/31 11:55:02;;;;;;;1.60;1.00;;;18.10;98.20;;;;;;5033525;28;21110;-72
2022/12/31 11:57:34;;;;;;;1.60;1.00;;;18.10;98.20;;;;;;5038162;28;20478;-72
2022/12/31 12:00:12;;;;;;;1.60;1.00;;;18.10;98.20;;;;;;5040361;28;20526;-71
2022/12/31 12:02:45;;;;;;;1.60;1.00;;;18.10;98.20;;;;;;5044047;28;20474;-71
2022/12/31 12:05:16;;;;;;;2.03;1.83;;;18.10;98.20;;;;;;5040164;28;20474;-71
2022/12/31 12:07:45;;;;;;;1.60;0.90;;;18.10;98.20;;;;;;5024669;28;20483;-72
2022/12/31 12:10:22;;;;;;;1.60;0.93;;;18.10;98.20;;;;;;5039605;28;20864;-72
2022/12/31 12:12:50;;;;;;;1.60;0.97;;;18.10;98.20;;;;;;5012602;28;20483;-71
2022/12/31 12:15:21;;;;;;;1.60;1.00;;;18.10;98.20;;;;;;5034670;28;20481;-71
2022/12/31 12:17:52;;;;;;;1.60;0.90;;;18.10;98.20;;;;;;5051981;28;20537;-72
2022/12/31 12:20:24;;;;;;;1.60;1.00;;;18.10;98.20;;;;;;5042271;28;20522;-71
2022/12/31 12:22:56;;;;;;;1.57;0.90;;;18.20;98.20;;;;;;5050276;28;20506;-72
2022/12/31 12:25:25;;;;;;;1.60;0.90;;;18.20;98.20;;;;;;5037978;28;20995;-71
2022/12/31 12:27:52;;;;;;;1.60;1.00;;;18.20;98.20;;;;;;5038345;28;20477;-71
2022/12/31 12:30:22;;;;;;;1.60;1.00;;;18.20;98.20;;;;;;5035617;28;20524;-72
2022/12/31 12:32:54;;;;;;;1.60;1.00;;;18.20;98.20;;;;;;5006293;28;20472;-72
2022/12/31 12:35:26;;;;;;;1.60;1.00;;;18.20;98.20;;;;;;5044080;28;20490;-72
2022/12/31 12:38:03;;;;;;;1.70;1.33;;;18.20;98.20;;;;;;5003584;28;20935;-71
2022/12/31 12:40:31;;;;;;;1.60;1.00;;;18.20;98.20;;;;;;5041191;28;20482;-71
2022/12/31 12:42:58;;;;;;;1.60;1.00;;;18.20;98.20;;;;;;5004318;28;21130;-72
2022/12/31 12:45:27;;;;;;;1.60;1.00;;;18.10;98.20;;;;;;5036624;28;20489;-72
2022/12/31 12:47:57;;;;;;;1.60;1.00;;;18.10;98.20;;;;;;5040843;28;20940;-73
2022/12/31 12:50:32;;;;;;;1.60;0.90;;;18.10;98.20;;;;;;5039678;28;20458;-71
2022/12/31 12:53:28;;;;;;;1.60;1.10;;;18.10;98.20;;;;;;5023931;28;20489;-71
2022/12/31 12:56:08;;;;;;;1.60;1.00;;;18.10;98.20;;;;;;5030636;28;20865;-73
2022/12/31 12:58:48;;;;;;;1.60;1.00;;;18.20;98.20;;;;;;5042946;28;20466;-72
2022/12/31 13:01:26;;;;;;;1.60;0.90;;;18.20;98.20;;;;;;5034093;28;20484;-72
2022/12/31 13:04:26;;;;;;;1.60;1.00;;;18.20;98.20;;;;;;5030794;28;20600;-72
2022/12/31 13:07:24;;;;;;;1.60;1.00;;;18.20;98.20;;;;;;5015569;28;20477;-72
2022/12/31 13:10:04;;;;;;;1.60;0.90;;;18.10;98.20;;;;;;5041843;28;20452;-73
2022/12/31 13:12:38;;;;;;;1.60;1.00;;;18.20;98.20;;;;;;5021569;28;20574;-72
2022/12/31 13:15:16;;;;;;;1.60;1.00;;;18.10;98.20;;;;;;5039807;28;20765;-72
2022/12/31 13:17:55;;;;;;;1.60;1.00;;;18.10;98.20;;;;;;5009299;28;20517;-72
2022/12/31 13:20:29;;;;;;;1.60;1.00;;;18.10;98.20;;;;;;5043893;28;21089;-72
2022/12/31 13:23:01;;;;;;;1.60;1.00;;;18.00;98.20;;;;;;5008740;28;20828;-73
2022/12/31 13:25:38;;;;;;;1.60;0.90;;;18.00;98.20;;;;;;5035623;28;20479;-73
2022/12/31 13:28:09;;;;;;;1.60;0.90;;;17.90;98.20;;;;;;5010088;28;20474;-73
2022/12/31 13:30:40;;;;;;;1.60;0.90;;;17.80;98.20;;;;;;5037553;28;20463;-73
2022/12/31 13:33:15;;;;;;;1.60;0.90;;;17.70;98.20;;;;;;4989839;28;20487;-70